sensor_id;sensor_type;location;lat;lon;timestamp;P1;durP1;ratioP1;P2;durP2;ratioP2
773;SDS011;370;48.810;9.150;2024-02-04T00:00:01;0.40;;;0.40;;
773;SDS011;370;48.810;9.150;2024-02-04T00:02:31;1.45;;;0.50;;
773;SDS011;370;48.810;9.150;2024-02-04T00:04:58;1.02;;;0.50;;
773;SDS011;370;48.810;9.150;2024-02-04T00:07:25;0.60;;;0.50;;
773;SDS011;370;48.810;9.150;2024-02-04T00:09:54;0.40;;;0.40;;
773;SDS011;370;48.810;9.150;2024-02-04T00:12:21;1.23;;;0.50;;
773;SDS011;370;48.810;9.150;2024-02-04T00:14:48;0.40;;;0.40;;
773;SDS011;370;48.810;9.150;2024-02-04T00:17:15;0.45;;;0.43;;
773;SDS011;370;48.810;9.150;2024-02-04T00:19:41;0.55;;;0.47;;
773;SDS011;370;48.810;9.150;2024-02-04T00:22:08;0.95;;;0.60;;
773;SDS011;370;48.810;9.150;2024-02-04T00:24:37;0.60;;;0.50;;
773;SDS011;370;48.810;9.150;2024-02-04T00:27:06;1.45;;;0.40;;
773;SDS011;370;48.810;9.150;2024-02-04T00:29:32;0.60;;;0.50;;
773;SDS011;370;48.810;9.150;2024-02-04T00:31:59;0.52;;;0.40;;
773;SDS011;370;48.810;9.150;2024-02-04T00:34:26;0.70;;;0.63;;
773;SDS011;370;48.810;9.150;2024-02-04T00:36:55;0.80;;;0.50;;
773;SDS011;370;48.810;9.150;2024-02-04T00:39:22;0.50;;;0.40;;
773;SDS011;370;48.810;9.150;2024-02-04T00:41:49;0.95;;;0.50;;
773;SDS011;370;48.810;9.150;2024-02-04T00:44:17;0.50;;;0.40;;
773;SDS011;370;48.810;9.150;2024-02-04T00:46:47;0.30;;;0.30;;
773;SDS011;370;48.810;9.150;2024-02-04T00:49:16;0.40;;;0.40;;
773;SDS011;370;48.810;9.150;2024-02-04T00:51:48;2.70;;;0.73;;
773;SDS011;370;48.810;9.150;2024-02-04T00:54:18;0.75;;;0.40;;
773;SDS011;370;48.810;9.150;2024-02-04T00:56:48;0.95;;;0.40;;
773;SDS011;370;48.810;9.150;2024-02-04T00:59:16;0.88;;;0.77;;
773;SDS011;370;48.810;9.150;2024-02-04T01:01:43;0.50;;;0.40;;
773;SDS011;370;48.810;9.150;2024-02-04T01:04:10;0.40;;;0.40;;
773;SDS011;370;48.810;9.150;2024-02-04T01:06:37;0.50;;;0.40;;
773;SDS011;370;48.810;9.150;2024-02-04T01:09:04;0.30;;;0.30;;
773;SDS011;370;48.810;9.150;2024-02-04T01:11:31;0.50;;;0.40;;
773;SDS011;370;48.810;9.150;2024-02-04T01:13:58;1.00;;;0.52;;
773;SDS011;370;48.810;9.150;2024-02-04T01:16:29;0.80;;;0.70;;
773;SDS011;370;48.810;9.150;2024-02-04T01:18:56;0.50;;;0.45;;
773;SDS011;370;48.810;9.150;2024-02-04T01:21:23;0.50;;;0.40;;
773;SDS011;370;48.810;9.150;2024-02-04T01:23:50;0.50;;;0.40;;
773;SDS011;370;48.810;9.150;2024-02-04T01:26:19;0.50;;;0.40;;
773;SDS011;370;48.810;9.150;2024-02-04T01:28:48;0.60;;;0.50;;
773;SDS011;370;48.810;9.150;2024-02-04T01:31:15;0.50;;;0.40;;
773;SDS011;370;48.810;9.150;2024-02-04T01:33:46;0.40;;;0.40;;
773;SDS011;370;48.810;9.150;2024-02-04T01:36:13;0.50;;;0.40;;
773;SDS011;370;48.810;9.150;2024-02-04T01:38:40;0.30;;;0.30;;
773;SDS011;370;48.810;9.150;2024-02-04T01:41:09;0.70;;;0.40;;
773;SDS011;370;48.810;9.150;2024-02-04T01:43:36;0.60;;;0.50;;
773;SDS011;370;48.810;9.150;2024-02-04T01:46:13;0.60;;;0.50;;
773;SDS011;370;48.810;9.150;2024-02-04T01:48:50;0.75;;;0.52;;
773;SDS011;370;48.810;9.150;2024-02-04T01:54:38;3.90;;;0.40;;
773;SDS011;370;48.810;9.150;2024-02-04T01:57:16;0.30;;;0.30;;
773;SDS011;370;48.810;9.150;2024-02-04T01:59:55;0.50;;;0.40;;
773;SDS011;370;48.810;9.150;2024-02-04T02:02:27;0.50;;;0.40;;
773;SDS011;370;48.810;9.150;2024-02-04T02:04:59;0.52;;;0.50;;
773;SDS011;370;48.810;9.150;2024-02-04T02:07:27;0.40;;;0.40;;
773;SDS011;370;48.810;9.150;2024-02-04T02:10:05;0.68;;;0.40;;
773;SDS011;370;48.810;9.150;2024-02-04T02:13:04;0.50;;;0.40;;
773;SDS011;370;48.810;9.150;2024-02-04T02:15:50;0.73;;;0.50;;
773;SDS011;370;48.810;9.150;2024-02-04T02:18:27;0.30;;;0.30;;
773;SDS011;370;48.810;9.150;2024-02-04T02:27:04;0.50;;;0.40;;
773;SDS011;370;48.810;9.150;2024-02-04T02:29:44;0.50;;;0.40;;
773;SDS011;370;48.810;9.150;2024-02-04T02:32:15;0.30;;;0.30;;
773;SDS011;370;48.810;9.150;2024-02-04T02:35:06;0.50;;;0.40;;
773;SDS011;370;48.810;9.150;2024-02-04T02:37:35;0.73;;;0.60;;
773;SDS011;370;48.810;9.150;2024-02-04T02:40:10;0.50;;;0.40;;
773;SDS011;370;48.810;9.150;2024-02-04T02:42:55;0.50;;;0.40;;
773;SDS011;370;48.810;9.150;2024-02-04T02:45:39;0.60;;;0.50;;
773;SDS011;370;48.810;9.150;2024-02-04T02:48:18;0.60;;;0.50;;
773;SDS011;370;48.810;9.150;2024-02-04T02:50:48;0.40;;;0.40;;
773;SDS011;370;48.810;9.150;2024-02-04T02:53:16;0.40;;;0.40;;
773;SDS011;370;48.810;9.150;2024-02-04T02:55:44;0.77;;;0.55;;
773;SDS011;370;48.810;9.150;2024-02-04T02:58:13;0.43;;;0.43;;
773;SDS011;370;48.810;9.150;2024-02-04T03:00:40;0.52;;;0.40;;
773;SDS011;370;48.810;9.150;2024-02-04T03:03:07;0.40;;;0.40;;
773;SDS011;370;48.810;9.150;2024-02-04T03:05:36;0.30;;;0.30;;
773;SDS011;370;48.810;9.150;2024-02-04T03:08:03;0.40;;;0.40;;
773;SDS011;370;48.810;9.150;2024-02-04T03:10:31;0.50;;;0.40;;
773;SDS011;370;48.810;9.150;2024-02-04T03:12:58;0.30;;;0.30;;
773;SDS011;370;48.810;9.150;2024-02-04T03:15:27;0.50;;;0.40;;
773;SDS011;370;48.810;9.150;2024-02-04T03:17:57;0.40;;;0.40;;
773;SDS011;370;48.810;9.150;2024-02-04T03:20:28;1.02;;;0.50;;
773;SDS011;370;48.810;9.150;2024-02-04T03:22:55;0.40;;;0.40;;
773;SDS011;370;48.810;9.150;2024-02-04T03:25:22;0.40;;;0.40;;
773;SDS011;370;48.810;9.150;2024-02-04T03:28:00;2.85;;;0.63;;
773;SDS011;370;48.810;9.150;2024-02-04T03:30:30;0.40;;;0.40;;
773;SDS011;370;48.810;9.150;2024-02-04T03:33:08;0.30;;;0.30;;
773;SDS011;370;48.810;9.150;2024-02-04T03:35:41;0.50;;;0.40;;
773;SDS011;370;48.810;9.150;2024-02-04T03:38:18;0.50;;;0.40;;
773;SDS011;370;48.810;9.150;2024-02-04T03:40:45;0.50;;;0.40;;
773;SDS011;370;48.810;9.150;2024-02-04T03:43:14;0.38;;;0.38;;
773;SDS011;370;48.810;9.150;2024-02-04T03:45:42;0.40;;;0.35;;
773;SDS011;370;48.810;9.150;2024-02-04T03:48:11;0.50;;;0.40;;
773;SDS011;370;48.810;9.150;2024-02-04T03:50:38;0.40;;;0.40;;
773;SDS011;370;48.810;9.150;2024-02-04T03:53:05;1.05;;;0.40;;
773;SDS011;370;48.810;9.150;2024-02-04T03:55:34;0.50;;;0.40;;
773;SDS011;370;48.810;9.150;2024-02-04T03:58:01;0.40;;;0.40;;
773;SDS011;370;48.810;9.150;2024-02-04T04:00:28;0.30;;;0.30;;
773;SDS011;370;48.810;9.150;2024-02-04T04:02:56;0.30;;;0.30;;
773;SDS011;370;48.810;9.150;2024-02-04T04:05:24;0.40;;;0.40;;
773;SDS011;370;48.810;9.150;2024-02-04T04:07:51;0.30;;;0.30;;
773;SDS011;370;48.810;9.150;2024-02-04T04:10:18;0.30;;;0.30;;
773;SDS011;370;48.810;9.150;2024-02-04T04:12:45;0.45;;;0.38;;
773;SDS011;370;48.810;9.150;2024-02-04T04:15:12;0.50;;;0.40;;
773;SDS011;370;48.810;9.150;2024-02-04T04:17:38;0.50;;;0.40;;
773;SDS011;370;48.810;9.150;2024-02-04T04:20:07;0.50;;;0.40;;
773;SDS011;370;48.810;9.150;2024-02-04T04:22:34;0.30;;;0.30;;
773;SDS011;370;48.810;9.150;2024-02-04T04:25:04;0.30;;;0.30;;
773;SDS011;370;48.810;9.150;2024-02-04T04:27:38;0.40;;;0.40;;
773;SDS011;370;48.810;9.150;2024-02-04T04:30:18;0.50;;;0.40;;
773;SDS011;370;48.810;9.150;2024-02-04T04:32:50;0.50;;;0.40;;
773;SDS011;370;48.810;9.150;2024-02-04T04:35:23;0.95;;;0.50;;
773;SDS011;370;48.810;9.150;2024-02-04T04:37:51;0.60;;;0.40;;
773;SDS011;370;48.810;9.150;2024-02-04T04:40:29;0.73;;;0.50;;
773;SDS011;370;48.810;9.150;2024-02-04T04:43:02;0.40;;;0.40;;
773;SDS011;370;48.810;9.150;2024-02-04T04:45:29;0.30;;;0.30;;
773;SDS011;370;48.810;9.150;2024-02-04T04:47:58;1.45;;;0.50;;
773;SDS011;370;48.810;9.150;2024-02-04T04:50:31;0.40;;;0.40;;
773;SDS011;370;48.810;9.150;2024-02-04T04:53:01;0.40;;;0.40;;
773;SDS011;370;48.810;9.150;2024-02-04T04:55:33;0.50;;;0.40;;
773;SDS011;370;48.810;9.150;2024-02-04T04:58:01;0.60;;;0.40;;
773;SDS011;370;48.810;9.150;2024-02-04T05:00:28;0.30;;;0.30;;
773;SDS011;370;48.810;9.150;2024-02-04T05:02:55;0.50;;;0.40;;
773;SDS011;370;48.810;9.150;2024-02-04T05:05:24;0.40;;;0.40;;
773;SDS011;370;48.810;9.150;2024-02-04T05:07:58;0.40;;;0.40;;
773;SDS011;370;48.810;9.150;2024-02-04T05:10:27;0.50;;;0.40;;
773;SDS011;370;48.810;9.150;2024-02-04T05:12:54;0.30;;;0.30;;
773;SDS011;370;48.810;9.150;2024-02-04T05:15:21;0.50;;;0.40;;
773;SDS011;370;48.810;9.150;2024-02-04T05:17:55;0.50;;;0.40;;
773;SDS011;370;48.810;9.150;2024-02-04T05:20:52;0.50;;;0.40;;
773;SDS011;370;48.810;9.150;2024-02-04T05:23:36;0.30;;;0.30;;
773;SDS011;370;48.810;9.150;2024-02-04T05:26:28;0.50;;;0.40;;
773;SDS011;370;48.810;9.150;2024-02-04T05:28:55;0.30;;;0.30;;
773;SDS011;370;48.810;9.150;2024-02-04T05:31:22;0.30;;;0.30;;
773;SDS011;370;48.810;9.150;2024-02-04T05:33:48;0.30;;;0.30;;
773;SDS011;370;48.810;9.150;2024-02-04T05:36:18;0.30;;;0.30;;
773;SDS011;370;48.810;9.150;2024-02-04T05:38:46;0.50;;;0.40;;
773;SDS011;370;48.810;9.150;2024-02-04T05:41:13;0.55;;;0.35;;
773;SDS011;370;48.810;9.150;2024-02-04T05:43:40;0.40;;;0.40;;
773;SDS011;370;48.810;9.150;2024-02-04T05:46:06;0.30;;;0.30;;
773;SDS011;370;48.810;9.150;2024-02-04T05:48:33;0.50;;;0.40;;
773;SDS011;370;48.810;9.150;2024-02-04T05:51:00;0.30;;;0.30;;
773;SDS011;370;48.810;9.150;2024-02-04T05:53:26;0.57;;;0.50;;
773;SDS011;370;48.810;9.150;2024-02-04T05:55:54;0.75;;;0.40;;
773;SDS011;370;48.810;9.150;2024-02-04T05:58:21;0.50;;;0.40;;
773;SDS011;370;48.810;9.150;2024-02-04T06:00:48;0.50;;;0.40;;
773;SDS011;370;48.810;9.150;2024-02-04T06:03:14;0.30;;;0.30;;
773;SDS011;370;48.810;9.150;2024-02-04T06:05:41;0.70;;;0.60;;
773;SDS011;370;48.810;9.150;2024-02-04T06:08:08;1.58;;;0.40;;
773;SDS011;370;48.810;9.150;2024-02-04T06:10:34;0.35;;;0.32;;
773;SDS011;370;48.810;9.150;2024-02-04T06:13:03;0.50;;;0.40;;
773;SDS011;370;48.810;9.150;2024-02-04T06:15:29;0.30;;;0.30;;
773;SDS011;370;48.810;9.150;2024-02-04T06:17:56;0.30;;;0.30;;
773;SDS011;370;48.810;9.150;2024-02-04T06:20:23;0.50;;;0.40;;
773;SDS011;370;48.810;9.150;2024-02-04T06:22:49;0.47;;;0.43;;
773;SDS011;370;48.810;9.150;2024-02-04T06:25:16;0.30;;;0.30;;
773;SDS011;370;48.810;9.150;2024-02-04T06:27:43;0.30;;;0.30;;
773;SDS011;370;48.810;9.150;2024-02-04T06:30:11;0.30;;;0.30;;
773;SDS011;370;48.810;9.150;2024-02-04T06:32:38;0.30;;;0.30;;
773;SDS011;370;48.810;9.150;2024-02-04T06:35:05;0.30;;;0.30;;
773;SDS011;370;48.810;9.150;2024-02-04T06:37:33;0.30;;;0.30;;
773;SDS011;370;48.810;9.150;2024-02-04T06:39:59;0.47;;;0.40;;
773;SDS011;370;48.810;9.150;2024-02-04T06:42:26;0.30;;;0.30;;
773;SDS011;370;48.810;9.150;2024-02-04T06:44:53;0.30;;;0.30;;
773;SDS011;370;48.810;9.150;2024-02-04T06:47:21;0.60;;;0.50;;
773;SDS011;370;48.810;9.150;2024-02-04T06:49:47;0.30;;;0.30;;
773;SDS011;370;48.810;9.150;2024-02-04T06:52:14;0.40;;;0.35;;
773;SDS011;370;48.810;9.150;2024-02-04T06:54:41;0.30;;;0.30;;
773;SDS011;370;48.810;9.150;2024-02-04T06:57:08;0.68;;;0.40;;
773;SDS011;370;48.810;9.150;2024-02-04T06:59:35;0.50;;;0.50;;
773;SDS011;370;48.810;9.150;2024-02-04T07:02:02;1.13;;;0.40;;
773;SDS011;370;48.810;9.150;2024-02-04T07:04:30;0.50;;;0.40;;
773;SDS011;370;48.810;9.150;2024-02-04T07:06:56;0.30;;;0.30;;
773;SDS011;370;48.810;9.150;2024-02-04T07:09:23;0.93;;;0.40;;
773;SDS011;370;48.810;9.150;2024-02-04T07:11:50;0.40;;;0.40;;
773;SDS011;370;48.810;9.150;2024-02-04T07:14:16;0.38;;;0.38;;
773;SDS011;370;48.810;9.150;2024-02-04T07:16:43;0.30;;;0.30;;
773;SDS011;370;48.810;9.150;2024-02-04T07:19:10;0.50;;;0.40;;
773;SDS011;370;48.810;9.150;2024-02-04T07:21:38;0.30;;;0.30;;
773;SDS011;370;48.810;9.150;2024-02-04T07:24:05;0.47;;;0.40;;
773;SDS011;370;48.810;9.150;2024-02-04T07:26:32;0.55;;;0.50;;
773;SDS011;370;48.810;9.150;2024-02-04T07:28:58;0.50;;;0.40;;
773;SDS011;370;48.810;9.150;2024-02-04T07:31:25;0.30;;;0.30;;
773;SDS011;370;48.810;9.150;2024-02-04T07:33:52;0.30;;;0.30;;
773;SDS011;370;48.810;9.150;2024-02-04T07:36:18;0.40;;;0.40;;
773;SDS011;370;48.810;9.150;2024-02-04T07:38:46;0.30;;;0.30;;
773;SDS011;370;48.810;9.150;2024-02-04T07:41:13;0.30;;;0.30;;
773;SDS011;370;48.810;9.150;2024-02-04T07:43:41;0.40;;;0.40;;
773;SDS011;370;48.810;9.150;2024-02-04T07:46:09;0.30;;;0.30;;
773;SDS011;370;48.810;9.150;2024-02-04T07:48:35;0.30;;;0.30;;
773;SDS011;370;48.810;9.150;2024-02-04T07:51:02;0.30;;;0.30;;
773;SDS011;370;48.810;9.150;2024-02-04T07:53:29;0.45;;;0.40;;
773;SDS011;370;48.810;9.150;2024-02-04T07:55:57;0.50;;;0.50;;
773;SDS011;370;48.810;9.150;2024-02-04T07:58:23;0.57;;;0.40;;
773;SDS011;370;48.810;9.150;2024-02-04T08:00:51;0.30;;;0.30;;
773;SDS011;370;48.810;9.150;2024-02-04T08:03:17;0.30;;;0.30;;
773;SDS011;370;48.810;9.150;2024-02-04T08:05:44;0.30;;;0.30;;
773;SDS011;370;48.810;9.150;2024-02-04T08:08:11;0.30;;;0.30;;
773;SDS011;370;48.810;9.150;2024-02-04T08:10:38;0.30;;;0.30;;
773;SDS011;370;48.810;9.150;2024-02-04T08:13:05;0.40;;;0.40;;
773;SDS011;370;48.810;9.150;2024-02-04T08:15:32;0.30;;;0.30;;
773;SDS011;370;48.810;9.150;2024-02-04T08:17:59;0.50;;;0.50;;
773;SDS011;370;48.810;9.150;2024-02-04T08:20:26;0.40;;;0.35;;
773;SDS011;370;48.810;9.150;2024-02-04T08:22:53;0.50;;;0.40;;
773;SDS011;370;48.810;9.150;2024-02-04T08:25:20;2.15;;;0.70;;
773;SDS011;370;48.810;9.150;2024-02-04T08:27:47;0.30;;;0.30;;
773;SDS011;370;48.810;9.150;2024-02-04T08:30:15;0.40;;;0.40;;
773;SDS011;370;48.810;9.150;2024-02-04T08:32:44;0.50;;;0.43;;
773;SDS011;370;48.810;9.150;2024-02-04T08:35:11;0.40;;;0.40;;
773;SDS011;370;48.810;9.150;2024-02-04T08:37:37;0.50;;;0.40;;
773;SDS011;370;48.810;9.150;2024-02-04T08:40:05;0.45;;;0.38;;
773;SDS011;370;48.810;9.150;2024-02-04T08:42:32;0.40;;;0.38;;
773;SDS011;370;48.810;9.150;2024-02-04T08:44:59;0.30;;;0.30;;
773;SDS011;370;48.810;9.150;2024-02-04T08:47:27;0.38;;;0.35;;
773;SDS011;370;48.810;9.150;2024-02-04T08:49:54;0.55;;;0.40;;
773;SDS011;370;48.810;9.150;2024-02-04T08:52:21;0.30;;;0.30;;
773;SDS011;370;48.810;9.150;2024-02-04T08:54:47;0.40;;;0.40;;
773;SDS011;370;48.810;9.150;2024-02-04T08:57:14;0.57;;;0.38;;
773;SDS011;370;48.810;9.150;2024-02-04T08:59:41;0.40;;;0.40;;
773;SDS011;370;48.810;9.150;2024-02-04T09:02:08;0.30;;;0.30;;
773;SDS011;370;48.810;9.150;2024-02-04T09:04:36;0.40;;;0.40;;
773;SDS011;370;48.810;9.150;2024-02-04T09:07:05;0.50;;;0.40;;
773;SDS011;370;48.810;9.150;2024-02-04T09:09:32;0.50;;;0.40;;
773;SDS011;370;48.810;9.150;2024-02-04T09:11:58;0.70;;;0.47;;
773;SDS011;370;48.810;9.150;2024-02-04T09:14:25;0.60;;;0.40;;
773;SDS011;370;48.810;9.150;2024-02-04T09:16:52;1.80;;;0.50;;
773;SDS011;370;48.810;9.150;2024-02-04T09:19:18;0.57;;;0.50;;
773;SDS011;370;48.810;9.150;2024-02-04T09:21:46;0.43;;;0.40;;
773;SDS011;370;48.810;9.150;2024-02-04T09:24:13;0.60;;;0.50;;
773;SDS011;370;48.810;9.150;2024-02-04T09:26:40;0.67;;;0.60;;
773;SDS011;370;48.810;9.150;2024-02-04T09:29:06;0.50;;;0.40;;
773;SDS011;370;48.810;9.150;2024-02-04T09:31:33;0.60;;;0.50;;
773;SDS011;370;48.810;9.150;2024-02-04T09:34:00;0.40;;;0.40;;
773;SDS011;370;48.810;9.150;2024-02-04T09:36:27;1.47;;;0.53;;
773;SDS011;370;48.810;9.150;2024-02-04T09:38:55;1.77;;;0.68;;
773;SDS011;370;48.810;9.150;2024-02-04T09:41:21;0.40;;;0.40;;
773;SDS011;370;48.810;9.150;2024-02-04T09:43:50;0.50;;;0.50;;
773;SDS011;370;48.810;9.150;2024-02-04T09:46:17;0.47;;;0.43;;
773;SDS011;370;48.810;9.150;2024-02-04T09:48:44;0.70;;;0.50;;
773;SDS011;370;48.810;9.150;2024-02-04T09:51:11;0.80;;;0.60;;
773;SDS011;370;48.810;9.150;2024-02-04T09:53:40;0.60;;;0.50;;
773;SDS011;370;48.810;9.150;2024-02-04T09:56:11;0.73;;;0.60;;
773;SDS011;370;48.810;9.150;2024-02-04T09:58:40;0.60;;;0.50;;
773;SDS011;370;48.810;9.150;2024-02-04T10:01:06;0.70;;;0.67;;
773;SDS011;370;48.810;9.150;2024-02-04T10:03:34;0.93;;;0.70;;
773;SDS011;370;48.810;9.150;2024-02-04T10:06:01;0.70;;;0.67;;
773;SDS011;370;48.810;9.150;2024-02-04T10:08:28;2.30;;;0.73;;
773;SDS011;370;48.810;9.150;2024-02-04T10:10:58;0.60;;;0.50;;
773;SDS011;370;48.810;9.150;2024-02-04T10:13:27;0.93;;;0.60;;
773;SDS011;370;48.810;9.150;2024-02-04T10:15:54;0.67;;;0.57;;
773;SDS011;370;48.810;9.150;2024-02-04T10:18:21;0.50;;;0.50;;
773;SDS011;370;48.810;9.150;2024-02-04T10:20:48;0.60;;;0.50;;
773;SDS011;370;48.810;9.150;2024-02-04T10:23:15;0.60;;;0.50;;
773;SDS011;370;48.810;9.150;2024-02-04T10:25:42;0.60;;;0.50;;
773;SDS011;370;48.810;9.150;2024-02-04T10:28:09;0.60;;;0.50;;
773;SDS011;370;48.810;9.150;2024-02-04T10:30:38;0.60;;;0.50;;
773;SDS011;370;48.810;9.150;2024-02-04T10:33:05;0.60;;;0.57;;
773;SDS011;370;48.810;9.150;2024-02-04T10:35:32;0.60;;;0.50;;
773;SDS011;370;48.810;9.150;2024-02-04T10:37:58;0.50;;;0.50;;
773;SDS011;370;48.810;9.150;2024-02-04T10:40:37;4.13;;;0.53;;
773;SDS011;370;48.810;9.150;2024-02-04T10:43:04;8.93;;;0.60;;
773;SDS011;370;48.810;9.150;2024-02-04T10:45:32;0.67;;;0.57;;
773;SDS011;370;48.810;9.150;2024-02-04T10:48:04;0.60;;;0.50;;
773;SDS011;370;48.810;9.150;2024-02-04T10:50:32;0.53;;;0.47;;
773;SDS011;370;48.810;9.150;2024-02-04T10:53:02;0.63;;;0.53;;
773;SDS011;370;48.810;9.150;2024-02-04T10:55:32;0.60;;;0.50;;
773;SDS011;370;48.810;9.150;2024-02-04T10:58:01;0.53;;;0.47;;
773;SDS011;370;48.810;9.150;2024-02-04T11:00:30;0.70;;;0.60;;
773;SDS011;370;48.810;9.150;2024-02-04T11:02:57;0.60;;;0.50;;
773;SDS011;370;48.810;9.150;2024-02-04T11:05:27;0.40;;;0.40;;
773;SDS011;370;48.810;9.150;2024-02-04T11:07:56;0.60;;;0.50;;
773;SDS011;370;48.810;9.150;2024-02-04T11:13:34;0.70;;;0.60;;
773;SDS011;370;48.810;9.150;2024-02-04T11:16:04;0.70;;;0.60;;
773;SDS011;370;48.810;9.150;2024-02-04T11:18:37;0.70;;;0.60;;
773;SDS011;370;48.810;9.150;2024-02-04T11:21:27;0.63;;;0.53;;
773;SDS011;370;48.810;9.150;2024-02-04T11:24:24;0.80;;;0.70;;
773;SDS011;370;48.810;9.150;2024-02-04T11:26:59;0.70;;;0.60;;
773;SDS011;370;48.810;9.150;2024-02-04T11:29:27;0.73;;;0.67;;
773;SDS011;370;48.810;9.150;2024-02-04T11:31:54;0.90;;;0.77;;
773;SDS011;370;48.810;9.150;2024-02-04T11:34:22;0.70;;;0.60;;
773;SDS011;370;48.810;9.150;2024-02-04T11:36:51;0.60;;;0.50;;
773;SDS011;370;48.810;9.150;2024-02-04T11:39:18;0.50;;;0.50;;
773;SDS011;370;48.810;9.150;2024-02-04T11:41:47;0.70;;;0.60;;
773;SDS011;370;48.810;9.150;2024-02-04T11:44:19;0.60;;;0.50;;
773;SDS011;370;48.810;9.150;2024-02-04T11:46:47;0.50;;;0.50;;
773;SDS011;370;48.810;9.150;2024-02-04T11:49:14;0.70;;;0.60;;
773;SDS011;370;48.810;9.150;2024-02-04T11:51:44;0.60;;;0.50;;
773;SDS011;370;48.810;9.150;2024-02-04T11:54:14;0.60;;;0.50;;
773;SDS011;370;48.810;9.150;2024-02-04T11:56:43;0.60;;;0.50;;
773;SDS011;370;48.810;9.150;2024-02-04T11:59:11;0.60;;;0.50;;
773;SDS011;370;48.810;9.150;2024-02-04T12:01:39;0.70;;;0.60;;
773;SDS011;370;48.810;9.150;2024-02-04T12:07:05;1.27;;;0.67;;
773;SDS011;370;48.810;9.150;2024-02-04T12:09:37;0.60;;;0.60;;
773;SDS011;370;48.810;9.150;2024-02-04T12:12:09;0.50;;;0.50;;
773;SDS011;370;48.810;9.150;2024-02-04T12:14:36;0.87;;;0.50;;
773;SDS011;370;48.810;9.150;2024-02-04T12:17:06;1.10;;;0.73;;
773;SDS011;370;48.810;9.150;2024-02-04T12:19:35;0.60;;;0.50;;
773;SDS011;370;48.810;9.150;2024-02-04T12:22:01;0.40;;;0.40;;
773;SDS011;370;48.810;9.150;2024-02-04T12:24:35;0.40;;;0.40;;
773;SDS011;370;48.810;9.150;2024-02-04T12:27:02;0.60;;;0.50;;
773;SDS011;370;48.810;9.150;2024-02-04T12:29:30;0.93;;;0.67;;
773;SDS011;370;48.810;9.150;2024-02-04T12:32:00;0.53;;;0.50;;
773;SDS011;370;48.810;9.150;2024-02-04T12:34:28;0.50;;;0.40;;
773;SDS011;370;48.810;9.150;2024-02-04T12:36:58;0.50;;;0.40;;
773;SDS011;370;48.810;9.150;2024-02-04T12:39:25;0.87;;;0.40;;
773;SDS011;370;48.810;9.150;2024-02-04T12:41:54;0.40;;;0.40;;
773;SDS011;370;48.810;9.150;2024-02-04T12:44:21;0.60;;;0.50;;
773;SDS011;370;48.810;9.150;2024-02-04T12:46:50;0.67;;;0.50;;
773;SDS011;370;48.810;9.150;2024-02-04T12:49:18;0.60;;;0.50;;
773;SDS011;370;48.810;9.150;2024-02-04T12:51:46;1.67;;;0.60;;
773;SDS011;370;48.810;9.150;2024-02-04T12:54:13;0.57;;;0.50;;
773;SDS011;370;48.810;9.150;2024-02-04T12:56:41;0.60;;;0.50;;
773;SDS011;370;48.810;9.150;2024-02-04T12:59:11;0.80;;;0.70;;
773;SDS011;370;48.810;9.150;2024-02-04T13:01:38;0.53;;;0.50;;
773;SDS011;370;48.810;9.150;2024-02-04T13:04:05;0.60;;;0.50;;
773;SDS011;370;48.810;9.150;2024-02-04T13:06:31;0.93;;;0.73;;
773;SDS011;370;48.810;9.150;2024-02-04T13:09:04;2.00;;;0.50;;
773;SDS011;370;48.810;9.150;2024-02-04T13:11:31;0.60;;;0.50;;
773;SDS011;370;48.810;9.150;2024-02-04T13:13:58;0.60;;;0.50;;
773;SDS011;370;48.810;9.150;2024-02-04T13:16:26;1.27;;;0.50;;
773;SDS011;370;48.810;9.150;2024-02-04T13:18:55;0.60;;;0.50;;
773;SDS011;370;48.810;9.150;2024-02-04T13:21:22;0.60;;;0.53;;
773;SDS011;370;48.810;9.150;2024-02-04T13:23:50;4.13;;;0.63;;
773;SDS011;370;48.810;9.150;2024-02-04T13:26:16;1.10;;;0.70;;
773;SDS011;370;48.810;9.150;2024-02-04T13:28:43;0.63;;;0.53;;
773;SDS011;370;48.810;9.150;2024-02-04T13:31:10;1.00;;;0.60;;
773;SDS011;370;48.810;9.150;2024-02-04T13:33:39;0.53;;;0.50;;
773;SDS011;370;48.810;9.150;2024-02-04T13:36:06;1.73;;;0.50;;
773;SDS011;370;48.810;9.150;2024-02-04T13:38:34;0.60;;;0.50;;
773;SDS011;370;48.810;9.150;2024-02-04T13:41:00;0.70;;;0.50;;
773;SDS011;370;48.810;9.150;2024-02-04T13:43:29;0.73;;;0.50;;
773;SDS011;370;48.810;9.150;2024-02-04T13:45:56;0.83;;;0.50;;
773;SDS011;370;48.810;9.150;2024-02-04T13:48:22;0.40;;;0.40;;
773;SDS011;370;48.810;9.150;2024-02-04T13:50:52;0.40;;;0.40;;
773;SDS011;370;48.810;9.150;2024-02-04T13:53:19;0.63;;;0.53;;
773;SDS011;370;48.810;9.150;2024-02-04T13:55:46;1.07;;;0.60;;
773;SDS011;370;48.810;9.150;2024-02-04T13:58:13;0.80;;;0.70;;
773;SDS011;370;48.810;9.150;2024-02-04T14:00:40;1.17;;;0.97;;
773;SDS011;370;48.810;9.150;2024-02-04T14:03:07;1.23;;;0.83;;
773;SDS011;370;48.810;9.150;2024-02-04T14:05:34;1.80;;;0.97;;
773;SDS011;370;48.810;9.150;2024-02-04T14:08:03;0.90;;;0.80;;
773;SDS011;370;48.810;9.150;2024-02-04T14:10:30;2.60;;;1.30;;
773;SDS011;370;48.810;9.150;2024-02-04T14:12:57;1.47;;;0.90;;
773;SDS011;370;48.810;9.150;2024-02-04T14:15:24;0.93;;;0.60;;
773;SDS011;370;48.810;9.150;2024-02-04T14:17:51;1.08;;;0.98;;
773;SDS011;370;48.810;9.150;2024-02-04T14:20:17;1.27;;;1.07;;
773;SDS011;370;48.810;9.150;2024-02-04T14:22:44;0.90;;;0.50;;
773;SDS011;370;48.810;9.150;2024-02-04T14:25:12;0.40;;;0.40;;
773;SDS011;370;48.810;9.150;2024-02-04T14:27:39;0.43;;;0.40;;
773;SDS011;370;48.810;9.150;2024-02-04T14:30:06;0.60;;;0.50;;
773;SDS011;370;48.810;9.150;2024-02-04T14:32:34;0.40;;;0.40;;
773;SDS011;370;48.810;9.150;2024-02-04T14:35:01;0.50;;;0.40;;
773;SDS011;370;48.810;9.150;2024-02-04T14:37:29;0.40;;;0.40;;
773;SDS011;370;48.810;9.150;2024-02-04T14:39:57;0.60;;;0.50;;
773;SDS011;370;48.810;9.150;2024-02-04T14:42:26;0.70;;;0.57;;
773;SDS011;370;48.810;9.150;2024-02-04T14:44:53;1.20;;;0.60;;
773;SDS011;370;48.810;9.150;2024-02-04T14:47:21;3.10;;;0.95;;
773;SDS011;370;48.810;9.150;2024-02-04T14:49:47;1.27;;;0.60;;
773;SDS011;370;48.810;9.150;2024-02-04T14:52:14;0.73;;;0.70;;
773;SDS011;370;48.810;9.150;2024-02-04T14:54:43;0.60;;;0.50;;
773;SDS011;370;48.810;9.150;2024-02-04T14:57:09;0.70;;;0.60;;
773;SDS011;370;48.810;9.150;2024-02-04T14:59:38;0.50;;;0.45;;
773;SDS011;370;48.810;9.150;2024-02-04T15:02:05;0.55;;;0.47;;
773;SDS011;370;48.810;9.150;2024-02-04T15:04:33;0.60;;;0.50;;
773;SDS011;370;48.810;9.150;2024-02-04T15:07:00;0.60;;;0.50;;
773;SDS011;370;48.810;9.150;2024-02-04T15:09:28;0.60;;;0.50;;
773;SDS011;370;48.810;9.150;2024-02-04T15:11:57;1.02;;;0.57;;
773;SDS011;370;48.810;9.150;2024-02-04T15:14:24;0.50;;;0.43;;
773;SDS011;370;48.810;9.150;2024-02-04T15:16:53;0.50;;;0.40;;
773;SDS011;370;48.810;9.150;2024-02-04T15:19:21;0.60;;;0.50;;
773;SDS011;370;48.810;9.150;2024-02-04T15:21:48;0.50;;;0.40;;
773;SDS011;370;48.810;9.150;2024-02-04T15:24:15;0.60;;;0.50;;
773;SDS011;370;48.810;9.150;2024-02-04T15:26:42;0.60;;;0.50;;
773;SDS011;370;48.810;9.150;2024-02-04T15:29:11;3.97;;;0.50;;
773;SDS011;370;48.810;9.150;2024-02-04T15:31:40;0.70;;;0.70;;
773;SDS011;370;48.810;9.150;2024-02-04T15:34:09;0.40;;;0.40;;
773;SDS011;370;48.810;9.150;2024-02-04T15:36:36;0.65;;;0.57;;
773;SDS011;370;48.810;9.150;2024-02-04T15:39:03;1.30;;;0.68;;
773;SDS011;370;48.810;9.150;2024-02-04T15:41:30;1.10;;;0.50;;
773;SDS011;370;48.810;9.150;2024-02-04T15:43:57;1.67;;;0.50;;
773;SDS011;370;48.810;9.150;2024-02-04T15:46:24;0.70;;;0.63;;
773;SDS011;370;48.810;9.150;2024-02-04T15:48:53;0.50;;;0.40;;
773;SDS011;370;48.810;9.150;2024-02-04T15:51:22;0.50;;;0.50;;
773;SDS011;370;48.810;9.150;2024-02-04T15:53:50;1.58;;;0.90;;
773;SDS011;370;48.810;9.150;2024-02-04T15:56:18;1.92;;;0.90;;
773;SDS011;370;48.810;9.150;2024-02-04T15:58:46;2.90;;;1.00;;
773;SDS011;370;48.810;9.150;2024-02-04T16:01:15;1.30;;;1.02;;
773;SDS011;370;48.810;9.150;2024-02-04T16:03:46;0.90;;;0.70;;
773;SDS011;370;48.810;9.150;2024-02-04T16:06:14;0.60;;;0.50;;
773;SDS011;370;48.810;9.150;2024-02-04T16:08:42;1.40;;;0.60;;